sensor_id;sensor_type;location;lat;lon;timestamp;pressure;altitude;pressure_sealevel;temperature;humidity
76766;BME280;65707;52.362;6.588;2023-05-29T00:00:20;102418.16;;;11.25;73.85
76766;BME280;65707;52.362;6.588;2023-05-29T00:02:47;102415.34;;;11.27;73.54
76766;BME280;65707;52.362;6.588;2023-05-29T00:05:14;102418.34;;;11.33;73.47
76766;BME280;65707;52.362;6.588;2023-05-29T00:07:43;102433.88;;;11.30;73.45
76766;BME280;65707;52.362;6.588;2023-05-29T00:10:10;102423.09;;;11.20;73.94
76766;BME280;65707;52.362;6.588;2023-05-29T00:12:38;102425.06;;;11.18;73.88
76766;BME280;65707;52.362;6.588;2023-05-29T00:15:05;102427.91;;;11.17;74.16
76766;BME280;65707;52.362;6.588;2023-05-29T00:17:32;102425.91;;;11.19;74.10
76766;BME280;65707;52.362;6.588;2023-05-29T00:19:59;102432.41;;;11.16;74.37
76766;BME280;65707;52.362;6.588;2023-05-29T00:22:28;102428.41;;;11.11;74.43
76766;BME280;65707;52.362;6.588;2023-05-29T00:24:59;102431.50;;;11.06;74.46
76766;BME280;65707;52.362;6.588;2023-05-29T00:27:25;102433.03;;;10.99;74.60
76766;BME280;65707;52.362;6.588;2023-05-29T00:29:55;102432.03;;;11.00;74.18
76766;BME280;65707;52.362;6.588;2023-05-29T00:32:23;102432.28;;;10.97;75.06
76766;BME280;65707;52.362;6.588;2023-05-29T00:34:50;102440.09;;;11.00;74.70
76766;BME280;65707;52.362;6.588;2023-05-29T00:37:17;102442.19;;;10.96;74.63
76766;BME280;65707;52.362;6.588;2023-05-29T00:39:43;102439.75;;;10.93;75.26
76766;BME280;65707;52.362;6.588;2023-05-29T00:42:14;102438.94;;;10.93;74.94
76766;BME280;65707;52.362;6.588;2023-05-29T00:44:43;102434.78;;;10.89;75.55
76766;BME280;65707;52.362;6.588;2023-05-29T00:47:14;102436.19;;;10.83;75.27
76766;BME280;65707;52.362;6.588;2023-05-29T00:49:41;102434.03;;;10.77;75.74
76766;BME280;65707;52.362;6.588;2023-05-29T00:52:09;102443.91;;;10.77;76.13
76766;BME280;65707;52.362;6.588;2023-05-29T00:54:37;102440.94;;;10.80;76.24
76766;BME280;65707;52.362;6.588;2023-05-29T00:57:04;102433.41;;;10.74;75.69
76766;BME280;65707;52.362;6.588;2023-05-29T00:59:33;102434.16;;;10.76;75.68
76766;BME280;65707;52.362;6.588;2023-05-29T01:02:01;102440.00;;;10.70;76.24
76766;BME280;65707;52.362;6.588;2023-05-29T01:04:28;102444.28;;;10.72;76.14
76766;BME280;65707;52.362;6.588;2023-05-29T01:06:58;102444.69;;;10.68;75.71
76766;BME280;65707;52.362;6.588;2023-05-29T01:09:26;102442.50;;;10.62;75.95
76766;BME280;65707;52.362;6.588;2023-05-29T01:12:03;102438.84;;;10.63;76.23
76766;BME280;65707;52.362;6.588;2023-05-29T01:14:44;102447.88;;;10.62;76.01
76766;BME280;65707;52.362;6.588;2023-05-29T01:17:16;102462.41;;;10.59;76.22
76766;BME280;65707;52.362;6.588;2023-05-29T01:20:03;102455.75;;;10.54;76.99
76766;BME280;65707;52.362;6.588;2023-05-29T01:22:43;102445.97;;;10.53;76.80
76766;BME280;65707;52.362;6.588;2023-05-29T01:25:19;102457.31;;;10.56;76.29
76766;BME280;65707;52.362;6.588;2023-05-29T01:27:49;102469.50;;;10.49;76.56
76766;BME280;65707;52.362;6.588;2023-05-29T01:30:17;102474.81;;;10.40;76.33
76766;BME280;65707;52.362;6.588;2023-05-29T01:32:44;102467.75;;;10.39;77.03
76766;BME280;65707;52.362;6.588;2023-05-29T01:35:14;102475.91;;;10.37;77.15
76766;BME280;65707;52.362;6.588;2023-05-29T01:37:40;102475.06;;;10.37;77.50
76766;BME280;65707;52.362;6.588;2023-05-29T01:40:08;102473.63;;;10.33;77.70
76766;BME280;65707;52.362;6.588;2023-05-29T01:42:35;102466.31;;;10.35;77.38
76766;BME280;65707;52.362;6.588;2023-05-29T01:45:04;102478.00;;;10.34;77.86
76766;BME280;65707;52.362;6.588;2023-05-29T01:47:32;102479.97;;;10.32;76.81
76766;BME280;65707;52.362;6.588;2023-05-29T01:50:00;102475.81;;;10.28;77.57
76766;BME280;65707;52.362;6.588;2023-05-29T01:52:29;102475.00;;;10.27;77.39
76766;BME280;65707;52.362;6.588;2023-05-29T01:54:55;102489.50;;;10.25;77.68
76766;BME280;65707;52.362;6.588;2023-05-29T01:57:25;102490.47;;;10.24;77.91
76766;BME280;65707;52.362;6.588;2023-05-29T01:59:52;102487.56;;;10.16;78.03
76766;BME280;65707;52.362;6.588;2023-05-29T02:02:22;102487.81;;;10.13;78.04
76766;BME280;65707;52.362;6.588;2023-05-29T02:04:54;102493.19;;;10.13;77.76
76766;BME280;65707;52.362;6.588;2023-05-29T02:07:21;102486.97;;;10.12;77.66
76766;BME280;65707;52.362;6.588;2023-05-29T02:09:47;102486.34;;;10.09;78.22
76766;BME280;65707;52.362;6.588;2023-05-29T02:12:14;102479.28;;;10.08;78.53
76766;BME280;65707;52.362;6.588;2023-05-29T02:14:46;102476.47;;;10.09;77.98
76766;BME280;65707;52.362;6.588;2023-05-29T02:17:13;102477.56;;;10.07;77.93
76766;BME280;65707;52.362;6.588;2023-05-29T02:19:41;102472.94;;;9.98;78.34
76766;BME280;65707;52.362;6.588;2023-05-29T02:22:17;102466.50;;;10.00;77.79
76766;BME280;65707;52.362;6.588;2023-05-29T02:24:44;102470.50;;;9.95;77.60
76766;BME280;65707;52.362;6.588;2023-05-29T02:27:13;102462.47;;;9.95;78.37
76766;BME280;65707;52.362;6.588;2023-05-29T02:29:41;102468.94;;;9.92;77.81
76766;BME280;65707;52.362;6.588;2023-05-29T02:32:11;102471.38;;;9.95;78.04
76766;BME280;65707;52.362;6.588;2023-05-29T02:34:37;102473.19;;;9.95;77.84
76766;BME280;65707;52.362;6.588;2023-05-29T02:37:07;102484.41;;;9.89;77.78
76766;BME280;65707;52.362;6.588;2023-05-29T02:39:33;102482.84;;;9.86;77.34
76766;BME280;65707;52.362;6.588;2023-05-29T02:42:00;102489.41;;;9.82;78.20
76766;BME280;65707;52.362;6.588;2023-05-29T02:44:26;102487.97;;;9.78;78.19
76766;BME280;65707;52.362;6.588;2023-05-29T02:46:53;102484.28;;;9.79;77.92
76766;BME280;65707;52.362;6.588;2023-05-29T02:49:20;102489.91;;;9.76;77.45
76766;BME280;65707;52.362;6.588;2023-05-29T02:51:47;102497.69;;;9.79;78.51
76766;BME280;65707;52.362;6.588;2023-05-29T02:54:16;102492.84;;;9.73;77.90
76766;BME280;65707;52.362;6.588;2023-05-29T02:56:42;102489.78;;;9.67;78.55
76766;BME280;65707;52.362;6.588;2023-05-29T02:59:09;102494.91;;;9.70;77.72
76766;BME280;65707;52.362;6.588;2023-05-29T03:01:35;102493.44;;;9.66;78.48
76766;BME280;65707;52.362;6.588;2023-05-29T03:04:02;102489.78;;;9.67;77.48
76766;BME280;65707;52.362;6.588;2023-05-29T03:06:29;102508.19;;;9.60;78.25
76766;BME280;65707;52.362;6.588;2023-05-29T03:09:00;102501.50;;;9.66;78.07
76766;BME280;65707;52.362;6.588;2023-05-29T03:11:28;102504.19;;;9.66;77.60
76766;BME280;65707;52.362;6.588;2023-05-29T03:13:55;102493.22;;;9.69;77.66
76766;BME280;65707;52.362;6.588;2023-05-29T03:16:22;102492.09;;;9.60;78.02
76766;BME280;65707;52.362;6.588;2023-05-29T03:18:49;102488.59;;;9.60;77.39
76766;BME280;65707;52.362;6.588;2023-05-29T03:21:15;102481.38;;;9.60;77.68
76766;BME280;65707;52.362;6.588;2023-05-29T03:23:42;102485.66;;;9.63;78.19
76766;BME280;65707;52.362;6.588;2023-05-29T03:26:11;102490.03;;;9.53;77.58
76766;BME280;65707;52.362;6.588;2023-05-29T03:28:39;102489.91;;;9.54;77.74
76766;BME280;65707;52.362;6.588;2023-05-29T03:31:06;102487.97;;;9.56;77.95
76766;BME280;65707;52.362;6.588;2023-05-29T03:33:35;102493.81;;;9.50;78.39
76766;BME280;65707;52.362;6.588;2023-05-29T03:36:03;102495.75;;;9.48;77.86
76766;BME280;65707;52.362;6.588;2023-05-29T03:38:29;102489.66;;;9.46;78.78
76766;BME280;65707;52.362;6.588;2023-05-29T03:41:02;102495.75;;;9.48;78.31
76766;BME280;65707;52.362;6.588;2023-05-29T03:43:29;102486.84;;;9.48;77.59
76766;BME280;65707;52.362;6.588;2023-05-29T03:46:00;102497.44;;;9.49;78.20
76766;BME280;65707;52.362;6.588;2023-05-29T03:48:30;102493.31;;;9.45;77.91
76766;BME280;65707;52.362;6.588;2023-05-29T03:50:57;102490.53;;;9.47;78.13
76766;BME280;65707;52.362;6.588;2023-05-29T03:53:29;102489.53;;;9.48;77.81
76766;BME280;65707;52.362;6.588;2023-05-29T03:55:56;102490.78;;;9.43;78.90
76766;BME280;65707;52.362;6.588;2023-05-29T03:58:22;102499.56;;;9.46;78.34
76766;BME280;65707;52.362;6.588;2023-05-29T04:00:49;102499.31;;;9.49;78.17
76766;BME280;65707;52.362;6.588;2023-05-29T04:03:17;102499.19;;;9.50;77.98
76766;BME280;65707;52.362;6.588;2023-05-29T04:05:44;102500.75;;;9.53;78.02
76766;BME280;65707;52.362;6.588;2023-05-29T04:08:10;102506.59;;;9.58;77.50
76766;BME280;65707;52.362;6.588;2023-05-29T04:10:38;102502.94;;;9.59;77.85
76766;BME280;65707;52.362;6.588;2023-05-29T04:13:05;102499.56;;;9.57;77.81
76766;BME280;65707;52.362;6.588;2023-05-29T04:15:35;102514.41;;;9.61;78.03
76766;BME280;65707;52.362;6.588;2023-05-29T04:18:02;102517.81;;;9.63;77.92
76766;BME280;65707;52.362;6.588;2023-05-29T04:20:33;102523.88;;;9.65;77.50
76766;BME280;65707;52.362;6.588;2023-05-29T04:23:02;102520.50;;;9.74;77.67
76766;BME280;65707;52.362;6.588;2023-05-29T04:25:29;102528.78;;;9.71;77.03
76766;BME280;65707;52.362;6.588;2023-05-29T04:27:55;102524.88;;;9.75;76.72
76766;BME280;65707;52.362;6.588;2023-05-29T04:30:22;102533.91;;;9.74;77.27
76766;BME280;65707;52.362;6.588;2023-05-29T04:32:48;102538.28;;;9.75;77.22
76766;BME280;65707;52.362;6.588;2023-05-29T04:35:17;102542.06;;;9.72;77.12
76766;BME280;65707;52.362;6.588;2023-05-29T04:37:45;102541.69;;;9.77;77.33
76766;BME280;65707;52.362;6.588;2023-05-29T04:40:12;102547.78;;;9.79;77.06
76766;BME280;65707;52.362;6.588;2023-05-29T04:42:42;102542.31;;;9.80;76.44
76766;BME280;65707;52.362;6.588;2023-05-29T04:45:10;102545.34;;;9.87;76.60
76766;BME280;65707;52.362;6.588;2023-05-29T04:47:37;102538.91;;;9.89;76.27
76766;BME280;65707;52.362;6.588;2023-05-29T04:50:09;102546.31;;;9.97;75.61
76766;BME280;65707;52.362;6.588;2023-05-29T04:52:36;102559.59;;;9.98;76.28
76766;BME280;65707;52.362;6.588;2023-05-29T04:55:05;102546.81;;;10.02;76.32
76766;BME280;65707;52.362;6.588;2023-05-29T04:57:35;102550.72;;;10.09;75.94
76766;BME280;65707;52.362;6.588;2023-05-29T05:00:06;102550.13;;;10.16;75.07
76766;BME280;65707;52.362;6.588;2023-05-29T05:02:35;102542.78;;;10.18;75.39
76766;BME280;65707;52.362;6.588;2023-05-29T05:05:03;102540.22;;;10.28;74.33
76766;BME280;65707;52.362;6.588;2023-05-29T05:07:33;102540.56;;;10.34;74.01
76766;BME280;65707;52.362;6.588;2023-05-29T05:10:01;102543.34;;;10.44;74.31
76766;BME280;65707;52.362;6.588;2023-05-29T05:12:30;102549.19;;;10.49;73.36
76766;BME280;65707;52.362;6.588;2023-05-29T05:14:56;102546.75;;;10.57;74.30
76766;BME280;65707;52.362;6.588;2023-05-29T05:17:23;102556.34;;;10.59;73.42
76766;BME280;65707;52.362;6.588;2023-05-29T05:19:49;102554.28;;;10.63;73.32
76766;BME280;65707;52.362;6.588;2023-05-29T05:22:22;102552.53;;;10.73;72.40
76766;BME280;65707;52.362;6.588;2023-05-29T05:24:48;102558.50;;;10.76;72.57
76766;BME280;65707;52.362;6.588;2023-05-29T05:27:17;102560.78;;;10.81;72.00
76766;BME280;65707;52.362;6.588;2023-05-29T05:29:47;102562.88;;;10.88;71.86
76766;BME280;65707;52.362;6.588;2023-05-29T05:32:14;102568.09;;;10.90;72.26
76766;BME280;65707;52.362;6.588;2023-05-29T05:34:41;102566.47;;;10.98;71.56
76766;BME280;65707;52.362;6.588;2023-05-29T05:37:07;102559.59;;;11.06;70.46
76766;BME280;65707;52.362;6.588;2023-05-29T05:39:35;102553.72;;;11.12;70.21
76766;BME280;65707;52.362;6.588;2023-05-29T05:42:01;102564.78;;;11.18;70.29
76766;BME280;65707;52.362;6.588;2023-05-29T05:44:28;102562.56;;;11.23;69.70
76766;BME280;65707;52.362;6.588;2023-05-29T05:46:56;102568.25;;;11.30;70.02
76766;BME280;65707;52.362;6.588;2023-05-29T05:49:22;102557.28;;;11.42;67.86
76766;BME280;65707;52.362;6.588;2023-05-29T05:51:49;102559.03;;;11.43;68.10
76766;BME280;65707;52.362;6.588;2023-05-29T05:54:16;102547.41;;;11.43;67.75
76766;BME280;65707;52.362;6.588;2023-05-29T05:56:45;102558.75;;;11.46;67.76
76766;BME280;65707;52.362;6.588;2023-05-29T05:59:12;102550.03;;;11.54;67.26
76766;BME280;65707;52.362;6.588;2023-05-29T06:01:41;102543.88;;;11.63;67.20
76766;BME280;65707;52.362;6.588;2023-05-29T06:04:12;102539.34;;;11.63;66.74
76766;BME280;65707;52.362;6.588;2023-05-29T06:06:38;102532.25;;;11.62;66.51
76766;BME280;65707;52.362;6.588;2023-05-29T06:09:06;102538.53;;;11.72;65.90
76766;BME280;65707;52.362;6.588;2023-05-29T06:11:35;102549.16;;;11.74;66.31
76766;BME280;65707;52.362;6.588;2023-05-29T06:14:02;102555.19;;;11.87;65.88
76766;BME280;65707;52.362;6.588;2023-05-29T06:16:29;102549.75;;;11.77;66.50
76766;BME280;65707;52.362;6.588;2023-05-29T06:18:56;102558.72;;;11.87;65.89
76766;BME280;65707;52.362;6.588;2023-05-29T06:21:23;102551.53;;;11.97;65.00
76766;BME280;65707;52.362;6.588;2023-05-29T06:23:50;102551.72;;;12.05;64.97
76766;BME280;65707;52.362;6.588;2023-05-29T06:26:17;102548.91;;;12.16;64.38
76766;BME280;65707;52.362;6.588;2023-05-29T06:28:43;102547.09;;;12.17;63.90
76766;BME280;65707;52.362;6.588;2023-05-29T06:31:10;102542.16;;;12.22;64.36
76766;BME280;65707;52.362;6.588;2023-05-29T06:33:41;102539.91;;;12.36;62.99
76766;BME280;65707;52.362;6.588;2023-05-29T06:36:08;102548.13;;;12.44;62.29
76766;BME280;65707;52.362;6.588;2023-05-29T06:38:36;102549.00;;;12.55;62.57
76766;BME280;65707;52.362;6.588;2023-05-29T06:41:02;102562.63;;;12.53;62.83
76766;BME280;65707;52.362;6.588;2023-05-29T06:43:29;102551.56;;;12.66;61.57
76766;BME280;65707;52.362;6.588;2023-05-29T06:45:56;102556.09;;;12.65;61.92
76766;BME280;65707;52.362;6.588;2023-05-29T06:48:25;102546.06;;;12.77;61.10
76766;BME280;65707;52.362;6.588;2023-05-29T06:50:54;102549.47;;;12.79;61.10
76766;BME280;65707;52.362;6.588;2023-05-29T06:53:26;102548.63;;;12.88;60.40
76766;BME280;65707;52.362;6.588;2023-05-29T06:55:54;102554.69;;;12.90;60.04
76766;BME280;65707;52.362;6.588;2023-05-29T06:58:20;102556.84;;;12.96;60.15
76766;BME280;65707;52.362;6.588;2023-05-29T07:00:47;102555.16;;;13.14;59.72
76766;BME280;65707;52.362;6.588;2023-05-29T07:03:13;102553.88;;;13.18;58.63
76766;BME280;65707;52.362;6.588;2023-05-29T07:05:40;102546.63;;;13.18;58.34
76766;BME280;65707;52.362;6.588;2023-05-29T07:08:07;102524.09;;;13.10;58.20
76766;BME280;65707;52.362;6.588;2023-05-29T07:10:34;102544.06;;;13.36;57.27
76766;BME280;65707;52.362;6.588;2023-05-29T07:13:14;102549.28;;;13.47;57.44
76766;BME280;65707;52.362;6.588;2023-05-29T07:15:43;102544.56;;;13.58;56.24
76766;BME280;65707;52.362;6.588;2023-05-29T07:18:10;102548.09;;;13.59;56.63
76766;BME280;65707;52.362;6.588;2023-05-29T07:20:37;102559.00;;;13.76;56.55
76766;BME280;65707;52.362;6.588;2023-05-29T07:23:03;102553.13;;;13.90;55.65
76766;BME280;65707;52.362;6.588;2023-05-29T07:25:30;102551.97;;;13.93;55.48
76766;BME280;65707;52.362;6.588;2023-05-29T07:27:57;102561.16;;;14.00;55.19
76766;BME280;65707;52.362;6.588;2023-05-29T07:30:25;102553.44;;;14.15;55.20
76766;BME280;65707;52.362;6.588;2023-05-29T07:32:51;102556.22;;;14.32;54.68
76766;BME280;65707;52.362;6.588;2023-05-29T07:35:18;102549.91;;;14.41;54.24
76766;BME280;65707;52.362;6.588;2023-05-29T07:37:44;102554.78;;;14.55;54.18
76766;BME280;65707;52.362;6.588;2023-05-29T07:40:15;102545.31;;;14.51;53.75
76766;BME280;65707;52.362;6.588;2023-05-29T07:42:43;102536.66;;;14.65;52.98
76766;BME280;65707;52.362;6.588;2023-05-29T07:45:10;102543.84;;;14.74;52.82
76766;BME280;65707;52.362;6.588;2023-05-29T07:47:41;102542.13;;;14.91;52.90
76766;BME280;65707;52.362;6.588;2023-05-29T07:50:11;102538.38;;;15.01;52.63
76766;BME280;65707;52.362;6.588;2023-05-29T07:52:38;102536.06;;;15.32;52.07
76766;BME280;65707;52.362;6.588;2023-05-29T07:55:04;102525.59;;;15.55;50.67
76766;BME280;65707;52.362;6.588;2023-05-29T07:57:31;102528.31;;;15.55;50.85
76766;BME280;65707;52.362;6.588;2023-05-29T07:59:58;102532.16;;;15.78;49.96
76766;BME280;65707;52.362;6.588;2023-05-29T08:02:25;102523.38;;;15.84;49.85
76766;BME280;65707;52.362;6.588;2023-05-29T08:04:53;102522.13;;;15.96;49.14
76766;BME280;65707;52.362;6.588;2023-05-29T08:07:19;102521.81;;;16.07;49.22
76766;BME280;65707;52.362;6.588;2023-05-29T08:09:46;102534.75;;;16.21;49.25
76766;BME280;65707;52.362;6.588;2023-05-29T08:12:12;102524.25;;;16.34;48.79
76766;BME280;65707;52.362;6.588;2023-05-29T08:14:39;102524.19;;;16.59;47.89
76766;BME280;65707;52.362;6.588;2023-05-29T08:17:07;102523.88;;;16.70;47.69
76766;BME280;65707;52.362;6.588;2023-05-29T08:19:37;102526.09;;;16.83;47.41
76766;BME280;65707;52.362;6.588;2023-05-29T08:22:06;102520.19;;;17.03;46.49
76766;BME280;65707;52.362;6.588;2023-05-29T08:24:35;102521.00;;;17.20;45.84
76766;BME280;65707;52.362;6.588;2023-05-29T08:27:01;102521.19;;;17.51;44.79
76766;BME280;65707;52.362;6.588;2023-05-29T08:29:28;102513.03;;;17.59;44.63
76766;BME280;65707;52.362;6.588;2023-05-29T08:31:54;102512.81;;;17.76;44.32
76766;BME280;65707;52.362;6.588;2023-05-29T08:34:22;102508.13;;;18.39;43.44
76766;BME280;65707;52.362;6.588;2023-05-29T08:36:49;102507.44;;;19.13;41.83
76766;BME280;65707;52.362;6.588;2023-05-29T08:39:18;102508.94;;;19.38;40.35
76766;BME280;65707;52.362;6.588;2023-05-29T08:41:51;102514.13;;;19.77;39.51
76766;BME280;65707;52.362;6.588;2023-05-29T08:44:32;102518.25;;;19.73;39.31
76766;BME280;65707;52.362;6.588;2023-05-29T08:47:01;102529.22;;;19.79;39.74
76766;BME280;65707;52.362;6.588;2023-05-29T08:49:29;102526.16;;;19.68;40.04
76766;BME280;65707;52.362;6.588;2023-05-29T08:52:02;102518.59;;;20.28;39.35
76766;BME280;65707;52.362;6.588;2023-05-29T08:54:34;102519.63;;;20.42;38.26
76766;BME280;65707;52.362;6.588;2023-05-29T08:57:00;102519.31;;;20.72;37.86
76766;BME280;65707;52.362;6.588;2023-05-29T08:59:30;102529.72;;;20.83;37.53
76766;BME280;65707;52.362;6.588;2023-05-29T09:01:57;102511.53;;;21.11;36.36
76766;BME280;65707;52.362;6.588;2023-05-29T09:04:24;102515.59;;;21.15;36.03
76766;BME280;65707;52.362;6.588;2023-05-29T09:06:53;102525.91;;;21.20;35.80
76766;BME280;65707;52.362;6.588;2023-05-29T09:09:20;102529.38;;;21.28;36.06
76766;BME280;65707;52.362;6.588;2023-05-29T09:11:50;102533.97;;;21.28;36.38
76766;BME280;65707;52.362;6.588;2023-05-29T09:14:35;102527.28;;;21.58;35.35
76766;BME280;65707;52.362;6.588;2023-05-29T09:17:05;102525.66;;;21.70;35.16
76766;BME280;65707;52.362;6.588;2023-05-29T09:19:34;102521.56;;;21.81;35.10
76766;BME280;65707;52.362;6.588;2023-05-29T09:22:04;102521.34;;;21.76;34.75
76766;BME280;65707;52.362;6.588;2023-05-29T09:24:33;102530.47;;;21.68;35.05
76766;BME280;65707;52.362;6.588;2023-05-29T09:27:04;102519.66;;;21.81;34.42
76766;BME280;65707;52.362;6.588;2023-05-29T09:29:33;102524.53;;;21.86;34.51
76766;BME280;65707;52.362;6.588;2023-05-29T09:32:06;102543.63;;;21.52;35.23
76766;BME280;65707;52.362;6.588;2023-05-29T09:34:36;102524.75;;;21.57;34.64
76766;BME280;65707;52.362;6.588;2023-05-29T09:37:04;102525.22;;;21.67;34.74
76766;BME280;65707;52.362;6.588;2023-05-29T09:39:34;102531.47;;;21.82;35.15
76766;BME280;65707;52.362;6.588;2023-05-29T09:42:05;102531.78;;;22.06;34.05
76766;BME280;65707;52.362;6.588;2023-05-29T09:44:32;102529.13;;;22.19;34.15
76766;BME280;65707;52.362;6.588;2023-05-29T09:46:59;102529.88;;;22.47;33.26
76766;BME280;65707;52.362;6.588;2023-05-29T09:49:26;102517.97;;;22.81;32.18
76766;BME280;65707;52.362;6.588;2023-05-29T09:51:54;102519.06;;;23.00;32.09
76766;BME280;65707;52.362;6.588;2023-05-29T09:54:26;102518.25;;;23.19;31.11
76766;BME280;65707;52.362;6.588;2023-05-29T09:56:56;102513.81;;;23.50;30.74
76766;BME280;65707;52.362;6.588;2023-05-29T09:59:29;102503.28;;;23.47;30.58
76766;BME280;65707;52.362;6.588;2023-05-29T10:02:01;102513.16;;;23.68;30.56
76766;BME280;65707;52.362;6.588;2023-05-29T10:04:29;102504.03;;;23.87;30.02
76766;BME280;65707;52.362;6.588;2023-05-29T10:07:00;102505.94;;;23.99;30.21
76766;BME280;65707;52.362;6.588;2023-05-29T10:09:30;102492.84;;;24.52;28.79
76766;BME280;65707;52.362;6.588;2023-05-29T10:12:00;102497.31;;;24.78;27.82
76766;BME280;65707;52.362;6.588;2023-05-29T10:14:35;102488.75;;;24.61;27.98
76766;BME280;65707;52.362;6.588;2023-05-29T10:17:07;102487.03;;;24.67;27.67
76766;BME280;65707;52.362;6.588;2023-05-29T10:19:37;102487.13;;;24.54;27.04
76766;BME280;65707;52.362;6.588;2023-05-29T10:22:11;102484.44;;;24.40;27.47
76766;BME280;65707;52.362;6.588;2023-05-29T10:24:39;102499.72;;;24.30;28.61
76766;BME280;65707;52.362;6.588;2023-05-29T10:27:06;102491.31;;;24.18;28.12
76766;BME280;65707;52.362;6.588;2023-05-29T10:29:39;102496.91;;;23.73;28.34
76766;BME280;65707;52.362;6.588;2023-05-29T10:32:18;102495.28;;;24.22;28.72
76766;BME280;65707;52.362;6.588;2023-05-29T10:34:52;102491.69;;;24.28;28.01
76766;BME280;65707;52.362;6.588;2023-05-29T10:39:48;102480.06;;;24.33;27.99
76766;BME280;65707;52.362;6.588;2023-05-29T10:45:00;102484.31;;;24.60;28.28
76766;BME280;65707;52.362;6.588;2023-05-29T10:47:26;102482.59;;;24.72;28.44
76766;BME280;65707;52.362;6.588;2023-05-29T10:49:59;102484.41;;;24.85;28.43
76766;BME280;65707;52.362;6.588;2023-05-29T10:52:26;102479.66;;;24.61;28.15
76766;BME280;65707;52.362;6.588;2023-05-29T10:55:01;102482.81;;;24.33;28.99
76766;BME280;65707;52.362;6.588;2023-05-29T10:57:30;102478.13;;;24.33;29.03
76766;BME280;65707;52.362;6.588;2023-05-29T11:00:10;102494.81;;;23.68;29.90
76766;BME280;65707;52.362;6.588;2023-05-29T11:02:39;102478.50;;;24.43;28.33
76766;BME280;65707;52.362;6.588;2023-05-29T11:05:19;102487.72;;;24.56;28.23
76766;BME280;65707;52.362;6.588;2023-05-29T11:07:54;102485.22;;;24.48;28.71
76766;BME280;65707;52.362;6.588;2023-05-29T11:10:44;102486.66;;;24.19;28.57
76766;BME280;65707;52.362;6.588;2023-05-29T11:13:22;102491.97;;;24.52;28.90
76766;BME280;65707;52.362;6.588;2023-05-29T11:16:05;102490.91;;;24.53;29.19
76766;BME280;65707;52.362;6.588;2023-05-29T11:18:38;102484.34;;;25.16;28.51
76766;BME280;65707;52.362;6.588;2023-05-29T11:21:13;102490.75;;;25.10;28.36
76766;BME280;65707;52.362;6.588;2023-05-29T11:23:41;102494.72;;;25.14;27.63
76766;BME280;65707;52.362;6.588;2023-05-29T11:26:12;102487.34;;;25.14;27.30
76766;BME280;65707;52.362;6.588;2023-05-29T11:28:42;102486.81;;;25.24;27.17
76766;BME280;65707;52.362;6.588;2023-05-29T11:31:10;102483.13;;;25.12;26.92
76766;BME280;65707;52.362;6.588;2023-05-29T11:33:40;102480.97;;;25.14;27.37
76766;BME280;65707;52.362;6.588;2023-05-29T11:36:08;102487.47;;;24.95;27.60
76766;BME280;65707;52.362;6.588;2023-05-29T11:38:36;102487.84;;;25.05;27.62
76766;BME280;65707;52.362;6.588;2023-05-29T11:41:03;102466.63;;;25.79;26.08
76766;BME280;65707;52.362;6.588;2023-05-29T11:43:29;102469.22;;;26.10;24.83
76766;BME280;65707;52.362;6.588;2023-05-29T11:45:56;102456.91;;;26.13;24.45
76766;BME280;65707;52.362;6.588;2023-05-29T11:48:26;102477.00;;;26.13;24.61
76766;BME280;65707;52.362;6.588;2023-05-29T11:50:56;102471.72;;;26.30;25.24
76766;BME280;65707;52.362;6.588;2023-05-29T11:53:29;102464.97;;;26.85;24.58
76766;BME280;65707;52.362;6.588;2023-05-29T11:56:06;102469.00;;;26.71;24.75
76766;BME280;65707;52.362;6.588;2023-05-29T11:58:33;102467.72;;;26.85;24.25
76766;BME280;65707;52.362;6.588;2023-05-29T12:01:01;102469.53;;;26.61;24.62
76766;BME280;65707;52.362;6.588;2023-05-29T12:03:29;102467.66;;;27.03;25.01
76766;BME280;65707;52.362;6.588;2023-05-29T12:05:56;102470.66;;;27.24;24.41
76766;BME280;65707;52.362;6.588;2023-05-29T12:08:24;102468.31;;;27.28;24.76
76766;BME280;65707;52.362;6.588;2023-05-29T12:10:53;102465.78;;;27.26;24.73
76766;BME280;65707;52.362;6.588;2023-05-29T12:13:25;102472.09;;;27.15;24.58
76766;BME280;65707;52.362;6.588;2023-05-29T12:15:55;102455.22;;;27.47;24.23
76766;BME280;65707;52.362;6.588;2023-05-29T12:18:22;102458.44;;;27.67;24.82
76766;BME280;65707;52.362;6.588;2023-05-29T12:20:51;102466.47;;;27.22;25.40
76766;BME280;65707;52.362;6.588;2023-05-29T12:23:22;102460.88;;;27.40;24.72
76766;BME280;65707;52.362;6.588;2023-05-29T12:25:51;102467.91;;;27.01;24.78
76766;BME280;65707;52.362;6.588;2023-05-29T12:28:21;102467.88;;;26.90;25.75
76766;BME280;65707;52.362;6.588;2023-05-29T12:30:50;102462.63;;;27.11;25.34
76766;BME280;65707;52.362;6.588;2023-05-29T12:33:42;102448.63;;;27.71;23.87
76766;BME280;65707;52.362;6.588;2023-05-29T12:36:11;102453.38;;;28.26;24.17
76766;BME280;65707;52.362;6.588;2023-05-29T12:38:49;102461.16;;;28.01;24.25
76766;BME280;65707;52.362;6.588;2023-05-29T12:41:33;102463.63;;;27.52;24.93
76766;BME280;65707;52.362;6.588;2023-05-29T12:44:02;102459.91;;;27.58;24.52
76766;BME280;65707;52.362;6.588;2023-05-29T12:46:35;102462.78;;;27.51;24.68
76766;BME280;65707;52.362;6.588;2023-05-29T12:49:11;102458.72;;;27.54;24.68
76766;BME280;65707;52.362;6.588;2023-05-29T12:51:41;102461.09;;;27.62;25.19
76766;BME280;65707;52.362;6.588;2023-05-29T12:54:09;102466.50;;;27.57;23.96
76766;BME280;65707;52.362;6.588;2023-05-29T12:56:36;102457.00;;;27.76;24.18
76766;BME280;65707;52.362;6.588;2023-05-29T12:59:05;102455.19;;;28.32;23.28
76766;BME280;65707;52.362;6.588;2023-05-29T13:01:32;102447.31;;;28.52;22.71
76766;BME280;65707;52.362;6.588;2023-05-29T13:03:59;102442.38;;;28.71;22.95
76766;BME280;65707;52.362;6.588;2023-05-29T13:06:28;102452.19;;;28.34;23.27